| time (UTC) | temp C | wind direction | speed KPH | gust KPH | rain 1hr cm | rain 24hr cm | rain mn cm | humidity % | barometer mb |
| 20260508121603 | 13 | 117 | 3.2 | 11.3 | 0.00 | 0.00 | 0.00 | 76 | 1017.7 |
| 20260508121535 | 13 | 65 | 3.2 | 12.9 | 0.00 | 0.00 | 0.00 | 76 | 1016.4 |
| 20260508120057 | 13 | 111 | 1.6 | 11.3 | 0.00 | 0.00 | 0.00 | 75 | 1017.7 |
| 20260508120034 | 13 | 103 | 1.6 | 11.3 | 0.00 | 0.00 | 0.00 | 74 | 1016.3 |
| 20260508114553 | 13 | 57 | 1.6 | 12.9 | 0.00 | 0.00 | 0.00 | 75 | 1017.7 |
| 20260508114535 | 13 | 55 | 1.6 | 12.9 | 0.00 | 0.00 | 0.00 | 74 | 1016.3 |
| 20260508113052 | 13 | 146 | 3.2 | 14.5 | 0.00 | 0.00 | 0.00 | 77 | 1017.5 |
| 20260508113045 | 13 | 74 | 3.2 | 14.5 | 0.00 | 0.00 | 0.00 | 76 | 1016.3 |
| 20260508111550 | 12 | 50 | 3.2 | 14.5 | 0.00 | 0.00 | 0.00 | 78 | 1017.4 |
| 20260508111536 | 12 | 42 | 3.2 | 14.5 | 0.00 | 0.00 | 0.00 | 78 | 1016.3 |
| 20260508110052 | 12 | 159 | 4.8 | 19.3 | 0.00 | 0.00 | 0.00 | 78 | 1017.3 |
| 20260508110034 | 12 | 21 | 4.8 | 19.3 | 0.00 | 0.00 | 0.00 | 78 | 1016.3 |
| 20260508104616 | 13 | 148 | 3.2 | 12.9 | 0.00 | 0.00 | 0.00 | 77 | 1017.3 |
| 20260508104542 | 13 | 78 | 3.2 | 16.1 | 0.00 | 0.00 | 0.00 | 76 | 1016.1 |
| 20260508103048 | 13 | 17 | 3.2 | 14.5 | 0.00 | 0.00 | 0.00 | 74 | 1017.2 |
| 20260508103034 | 13 | 291 | 3.2 | 14.5 | 0.00 | 0.00 | 0.00 | 74 | 1016.1 |
| 20260508101550 | 13 | 253 | 4.8 | 16.1 | 0.00 | 0.00 | 0.00 | 75 | 1017.2 |
| 20260508101537 | 13 | 64 | 6.4 | 16.1 | 0.00 | 0.00 | 0.00 | 74 | 1016.0 |
| 20260508100044 | 14 | 78 | 1.6 | 14.5 | 0.00 | 0.00 | 0.00 | 74 | 1017.1 |
| 20260508100039 | 14 | 34 | 3.2 | 14.5 | 0.00 | 0.00 | 0.00 | 74 | 1015.9 |
| 20260508094545 | 13 | 18 | 3.2 | 12.9 | 0.00 | 0.00 | 0.00 | 76 | 1016.9 |
| 20260508094535 | 13 | 67 | 3.2 | 12.9 | 0.00 | 0.00 | 0.00 | 75 | 1015.9 |
| 20260508093039 | 13 | 78 | 3.2 | 14.5 | 0.00 | 0.00 | 0.00 | 77 | 1015.8 |
| 20260508093036 | 13 | 67 | 3.2 | 14.5 | 0.00 | 0.00 | 0.00 | 77 | 1016.7 |
| 20260508091542 | 13 | 49 | 3.2 | 14.5 | 0.00 | 0.00 | 0.00 | 78 | 1015.8 |
| 20260508091534 | 13 | 109 | 3.2 | 14.5 | 0.00 | 0.00 | 0.00 | 78 | 1016.7 |
| 20260508090045 | 13 | 148 | 1.6 | 8.0 | 0.00 | 0.00 | 0.00 | 77 | 1015.8 |
| 20260508090032 | 13 | 118 | 1.6 | 8.0 | 0.00 | 0.00 | 0.00 | 77 | 1016.8 |
| 20260508084539 | 12 | 111 | 3.2 | 14.5 | 0.00 | 0.00 | 0.00 | 76 | 1015.8 |
| 20260508084531 | 12 | 113 | 3.2 | 14.5 | 0.00 | 0.00 | 0.00 | 77 | 1016.8 |
| 20260508083039 | 13 | 9 | 1.6 | 9.7 | 0.00 | 0.00 | 0.00 | 76 | 1015.7 |
| 20260508083031 | 13 | 5 | 1.6 | 9.7 | 0.00 | 0.00 | 0.00 | 77 | 1016.8 |
| 20260508081539 | 12 | 0 | 3.2 | 9.7 | 0.00 | 0.00 | 0.00 | 76 | 1015.6 |
| 20260508081528 | 12 | 113 | 3.2 | 8.0 | 0.00 | 0.00 | 0.00 | 76 | 1016.7 |
| 20260508080034 | 12 | 355 | 1.6 | 9.7 | 0.00 | 0.00 | 0.00 | 76 | 1015.5 |
| 20260508080027 | 12 | 19 | 1.6 | 9.7 | 0.00 | 0.00 | 0.00 | 76 | 1016.7 |
| 20260508074539 | 12 | 0 | 0.0 | 6.4 | 0.00 | 0.00 | 0.00 | 77 | 1015.5 |
| 20260508074521 | 12 | 61 | 0.0 | 6.4 | 0.00 | 0.00 | 0.00 | 78 | 1016.6 |
| 20260508073040 | 12 | 0 | 1.6 | 8.0 | 0.00 | 0.00 | 0.00 | 76 | 1015.3 |
| 20260508073020 | 12 | 45 | 1.6 | 8.0 | 0.00 | 0.00 | 0.00 | 77 | 1016.3 |
| 20260508071537 | 12 | 0 | 0.0 | 4.8 | 0.00 | 0.00 | 0.00 | 77 | 1015.2 |
| 20260508071518 | 12 | 138 | 0.0 | 4.8 | 0.00 | 0.00 | 0.00 | 77 | 1016.3 |
| 20260508070045 | 12 | 0 | 0.0 | 3.2 | 0.00 | 0.00 | 0.00 | 79 | 1015.1 |
| 20260508070021 | 12 | 143 | 0.0 | 1.6 | 0.00 | 0.00 | 0.00 | 79 | 1016.2 |
| 20260508064558 | 11 | 144 | 0.0 | 3.2 | 0.00 | 0.00 | 0.00 | 79 | 1015.0 |
| 20260508064511 | 11 | 146 | 0.0 | 4.8 | 0.00 | 0.00 | 0.00 | 80 | 1016.1 |
| 20260508063039 | 11 | 173 | 0.0 | 0.0 | 0.00 | 0.00 | 0.00 | 83 | 1014.8 |
| 20260508063009 | 11 | 218 | 0.0 | 0.0 | 0.00 | 0.00 | 0.00 | 84 | 1015.8 |
| 20260508061535 | 10 | 0 | 0.0 | 0.0 | 0.00 | 0.00 | 0.00 | 87 | 1014.7 |
| 20260508061508 | 10 | 225 | 0.0 | 0.0 | 0.00 | 0.00 | 0.00 | 87 | 1015.7 |
| 20260508060039 | 9 | 0 | 0.0 | 0.0 | 0.00 | 0.00 | 0.00 | 88 | 1014.4 |
| 20260508060005 | 9 | 225 | 0.0 | 0.0 | 0.00 | 0.00 | 0.00 | 89 | 1015.6 |
| 20260508054604 | 8 | 0 | 0.0 | 0.0 | 0.00 | 0.00 | 0.00 | 90 | 1014.4 |
| 20260508054505 | 8 | 239 | 0.0 | 0.0 | 0.00 | 0.00 | 0.00 | 90 | 1015.4 |
| 20260508053107 | 7 | 239 | 0.0 | 0.0 | 0.00 | 0.00 | 0.00 | 89 | 1015.4 |
| 20260508053040 | 7 | 0 | 0.0 | 0.0 | 0.00 | 0.00 | 0.00 | 88 | 1014.3 |
| 20260508051558 | 7 | 239 | 0.0 | 0.0 | 0.00 | 0.00 | 0.00 | 88 | 1015.5 |
| 20260508051541 | 7 | 0 | 0.0 | 0.0 | 0.00 | 0.00 | 0.00 | 88 | 1014.3 |
| 20260508050059 | 7 | 239 | 0.0 | 0.0 | 0.00 | 0.00 | 0.00 | 88 | 1015.4 |
| 20260508050041 | 7 | 0 | 0.0 | 0.0 | 0.00 | 0.00 | 0.00 | 88 | 1014.3 |
| 20260508044552 | 8 | 239 | 0.0 | 0.0 | 0.00 | 0.00 | 0.00 | 88 | 1015.5 |
| 20260508044539 | 8 | 0 | 0.0 | 0.0 | 0.00 | 0.00 | 0.00 | 87 | 1014.2 |
| 20260508043100 | 8 | 248 | 0.0 | 0.0 | 0.00 | 0.00 | 0.00 | 88 | 1015.3 |
| 20260508043048 | 8 | 0 | 0.0 | 0.0 | 0.00 | 0.00 | 0.00 | 88 | 1014.1 |
| 20260508041549 | 7 | 248 | 0.0 | 0.0 | 0.00 | 0.00 | 0.00 | 89 | 1015.1 |
| 20260508041539 | 7 | 0 | 0.0 | 0.0 | 0.00 | 0.00 | 0.00 | 88 | 1014.0 |
| 20260508040048 | 7 | 0 | 0.0 | 0.0 | 0.00 | 0.00 | 0.00 | 87 | 1014.0 |
| 20260508034546 | 7 | 248 | 0.0 | 0.0 | 0.00 | 0.00 | 0.00 | 87 | 1015.2 |
| 20260508034540 | 7 | 0 | 0.0 | 0.0 | 0.00 | 0.00 | 0.00 | 86 | 1013.9 |
| 20260508033045 | 8 | 248 | 0.0 | 0.0 | 0.00 | 0.00 | 0.00 | 87 | 1015.1 |
| 20260508033035 | 8 | 0 | 0.0 | 0.0 | 0.00 | 0.00 | 0.00 | 86 | 1013.9 |
| 20260508031551 | 8 | 248 | 0.0 | 0.0 | 0.00 | 0.00 | 0.00 | 86 | 1015.2 |
| 20260508030050 | 8 | 248 | 0.0 | 0.0 | 0.00 | 0.00 | 0.00 | 85 | 1015.2 |
| 20260508030032 | 8 | 0 | 0.0 | 0.0 | 0.00 | 0.00 | 0.00 | 85 | 1014.0 |
| 20260508024540 | 8 | 248 | 0.0 | 0.0 | 0.00 | 0.00 | 0.00 | 85 | 1015.2 |
| 20260508024531 | 8 | 0 | 0.0 | 0.0 | 0.00 | 0.00 | 0.00 | 84 | 1014.0 |
| 20260508023042 | 8 | 248 | 0.0 | 0.0 | 0.00 | 0.00 | 0.00 | 84 | 1015.1 |
| 20260508023039 | 8 | 0 | 0.0 | 0.0 | 0.00 | 0.00 | 0.00 | 84 | 1013.9 |
| 20260508021540 | 8 | 0 | 0.0 | 1.6 | 0.00 | 0.00 | 0.00 | 83 | 1013.8 |
| 20260508021538 | 8 | 248 | 0.0 | 0.0 | 0.00 | 0.00 | 0.00 | 84 | 1015.0 |
| 20260508020034 | 9 | 0 | 0.0 | 0.0 | 0.00 | 0.00 | 0.00 | 81 | 1013.7 |
| 20260508014533 | 9 | 0 | 0.0 | 0.0 | 0.00 | 0.00 | 0.00 | 79 | 1013.7 |
| 20260508014530 | 9 | 248 | 0.0 | 0.0 | 0.00 | 0.00 | 0.00 | 79 | 1014.7 |
| 20260508013033 | 10 | 0 | 0.0 | 0.0 | 0.00 | 0.00 | 0.00 | 78 | 1013.6 |
| 20260508013027 | 10 | 248 | 0.0 | 0.0 | 0.00 | 0.00 | 0.00 | 79 | 1014.6 |
| 20260508011544 | 10 | 0 | 0.0 | 4.8 | 0.00 | 0.00 | 0.00 | 78 | 1013.7 |
| 20260508011526 | 10 | 248 | 0.0 | 4.8 | 0.00 | 0.00 | 0.00 | 79 | 1014.6 |
| 20260508010039 | 11 | 0 | 0.0 | 3.2 | 0.00 | 0.00 | 0.00 | 78 | 1013.8 |
| 20260508010026 | 11 | 259 | 0.0 | 3.2 | 0.00 | 0.00 | 0.00 | 78 | 1014.8 |
| 20260508004538 | 11 | 259 | 0.0 | 3.2 | 0.00 | 0.00 | 0.00 | 77 | 1013.7 |
| 20260508004521 | 11 | 259 | 0.0 | 1.6 | 0.00 | 0.00 | 0.00 | 78 | 1014.7 |
| 20260508003038 | 11 | 0 | 1.6 | 12.9 | 0.00 | 0.00 | 0.00 | 77 | 1013.6 |
| 20260508003020 | 11 | 234 | 1.6 | 11.3 | 0.00 | 0.00 | 0.00 | 78 | 1014.7 |
| 20260508001539 | 11 | 242 | 4.8 | 11.3 | 0.00 | 0.00 | 0.00 | 77 | 1013.7 |
| 20260508001518 | 11 | 245 | 4.8 | 11.3 | 0.00 | 0.00 | 0.00 | 77 | 1014.8 |
| 20260508000044 | 11 | 252 | 3.2 | 11.3 | 0.00 | 0.00 | 0.00 | 76 | 1013.8 |
| 20260508000016 | 11 | 252 | 3.2 | 9.7 | 0.00 | 0.00 | 0.00 | 77 | 1014.8 |
| 20260507234542 | 11 | 254 | 1.6 | 6.4 | 0.00 | 0.00 | 0.00 | 76 | 1013.8 |
| 20260507234514 | 11 | 254 | 1.6 | 4.8 | 0.00 | 0.00 | 0.00 | 76 | 1014.8 |
| 20260507233040 | 11 | 0 | 0.0 | 4.8 | 0.00 | 0.00 | 0.00 | 75 | 1013.6 |
| 20260507233014 | 11 | 252 | 0.0 | 4.8 | 0.00 | 0.00 | 0.00 | 76 | 1014.7 |
| 20260507231537 | 11 | 0 | 0.0 | 6.4 | 0.00 | 0.00 | 0.00 | 75 | 1013.6 |
| 20260507231517 | 11 | 233 | 0.0 | 6.4 | 0.00 | 0.00 | 0.00 | 75 | 1014.7 |
| 20260507230039 | 11 | 0 | 0.0 | 11.3 | 0.00 | 0.00 | 0.00 | 74 | 1013.6 |
| 20260507230010 | 11 | 189 | 0.0 | 11.3 | 0.00 | 0.00 | 0.00 | 74 | 1014.7 |
| 20260507224539 | 11 | 123 | 1.6 | 12.9 | 0.00 | 0.00 | 0.00 | 74 | 1013.4 |
| 20260507224508 | 11 | 138 | 1.6 | 12.9 | 0.00 | 0.00 | 0.00 | 74 | 1014.6 |
| 20260507223036 | 11 | 260 | 1.6 | 16.1 | 0.00 | 0.00 | 0.00 | 73 | 1013.2 |
| 20260507223008 | 11 | 238 | 1.6 | 16.1 | 0.00 | 0.00 | 0.00 | 74 | 1014.4 |
| 20260507221534 | 11 | 298 | 1.6 | 6.4 | 0.00 | 0.00 | 0.00 | 74 | 1013.2 |
| 20260507221508 | 11 | 290 | 0.0 | 8.0 | 0.00 | 0.00 | 0.00 | 74 | 1014.4 |
| 20260507220033 | 11 | 0 | 0.0 | 8.0 | 0.00 | 0.00 | 0.00 | 74 | 1013.1 |
| 20260507220006 | 11 | 284 | 0.0 | 8.0 | 0.00 | 0.00 | 0.00 | 74 | 1014.3 |
| 20260507214545 | 12 | 0 | 0.0 | 6.4 | 0.00 | 0.00 | 0.00 | 74 | 1013.1 |
| 20260507214506 | 12 | 289 | 0.0 | 6.4 | 0.00 | 0.00 | 0.00 | 74 | 1014.3 |
| 20260507213042 | 11 | 200 | 1.6 | 11.3 | 0.00 | 0.00 | 0.00 | 74 | 1013.0 |
| 20260507213009 | 12 | 176 | 1.6 | 11.3 | 0.00 | 0.00 | 0.00 | 74 | 1014.0 |
| 20260507211546 | 12 | 286 | 4.8 | 11.3 | 0.00 | 0.00 | 0.00 | 74 | 1012.9 |
| 20260507211505 | 12 | 180 | 4.8 | 9.7 | 0.00 | 0.00 | 0.00 | 74 | 1014.1 |
| 20260507210034 | 12 | 225 | 0.0 | 9.7 | 0.00 | 0.00 | 0.00 | 74 | 1012.7 |
| 20260507210007 | 12 | 225 | 0.0 | 6.4 | 0.00 | 0.00 | 0.00 | 74 | 1013.9 |
| 20260507204541 | 12 | 254 | 1.6 | 11.3 | 0.00 | 0.00 | 0.00 | 73 | 1012.6 |
| 20260507204508 | 12 | 254 | 1.6 | 11.3 | 0.00 | 0.00 | 0.00 | 73 | 1013.8 |
| 20260507203039 | 12 | 0 | 1.6 | 12.9 | 0.00 | 0.00 | 0.00 | 72 | 1012.4 |
| 20260507203003 | 12 | 247 | 1.6 | 12.9 | 0.00 | 0.00 | 0.00 | 72 | 1013.6 |
| 20260507201606 | 12 | 180 | 4.8 | 14.5 | 0.00 | 0.00 | 0.00 | 72 | 1013.5 |
| 20260507201539 | 12 | 273 | 4.8 | 12.9 | 0.00 | 0.00 | 0.00 | 72 | 1012.2 |
| 20260507200034 | 12 | 259 | 4.8 | 19.3 | 0.00 | 0.00 | 0.00 | 71 | 1012.2 |
| 20260507200002 | 12 | 263 | 4.8 | 12.9 | 0.00 | 0.00 | 0.00 | 72 | 1013.4 |
| 20260507194540 | 12 | 237 | 4.8 | 14.5 | 0.00 | 0.00 | 0.00 | 71 | 1012.1 |
| 20260507194503 | 12 | 265 | 6.4 | 14.5 | 0.00 | 0.00 | 0.00 | 71 | 1013.3 |
| 20260507193048 | 13 | 248 | 6.4 | 19.3 | 0.00 | 0.00 | 0.00 | 70 | 1011.9 |
| 20260507193001 | 13 | 248 | 6.4 | 19.3 | 0.00 | 0.00 | 0.00 | 70 | 1013.2 |
| 20260507191617 | 13 | 217 | 3.2 | 16.1 | 0.00 | 0.00 | 0.00 | 69 | 1013.1 |
| 20260507191540 | 13 | 244 | 4.8 | 17.7 | 0.00 | 0.00 | 0.00 | 68 | 1011.8 |
| 20260507190100 | 13 | 252 | 4.8 | 17.7 | 0.00 | 0.00 | 0.00 | 68 | 1013.0 |
| 20260507190040 | 13 | 251 | 4.8 | 17.7 | 0.00 | 0.00 | 0.00 | 68 | 1011.6 |
| 20260507184608 | 13 | 259 | 3.2 | 12.9 | 0.00 | 0.00 | 0.00 | 67 | 1012.8 |
| 20260507184535 | 13 | 259 | 4.8 | 12.9 | 0.00 | 0.00 | 0.00 | 66 | 1011.6 |
| 20260507183104 | 14 | 239 | 3.2 | 11.3 | 0.00 | 0.00 | 0.00 | 65 | 1012.8 |
| 20260507183039 | 14 | 245 | 3.2 | 11.3 | 0.00 | 0.00 | 0.00 | 64 | 1011.5 |
| 20260507181557 | 13 | 198 | 3.2 | 11.3 | 0.00 | 0.00 | 0.00 | 64 | 1012.8 |
| 20260507181540 | 13 | 192 | 4.8 | 12.9 | 0.00 | 0.00 | 0.00 | 63 | 1011.5 |
| 20260507180100 | 13 | 265 | 1.6 | 12.9 | 0.00 | 0.00 | 0.00 | 66 | 1012.6 |
| 20260507180040 | 13 | 265 | 1.6 | 12.9 | 0.00 | 0.00 | 0.00 | 66 | 1011.4 |
| 20260507174556 | 13 | 119 | 1.6 | 6.4 | 0.00 | 0.00 | 0.00 | 73 | 1012.6 |
| 20260507173057 | 14 | 119 | 0.0 | 4.8 | 0.00 | 0.00 | 0.00 | 74 | 1012.6 |
| 20260507173036 | 14 | 0 | 0.0 | 4.8 | 0.00 | 0.00 | 0.00 | 73 | 1011.5 |
| 20260507171555 | 13 | 120 | 0.0 | 6.4 | 0.00 | 0.00 | 0.00 | 76 | 1012.6 |
| 20260507171545 | 13 | 0 | 0.0 | 8.0 | 0.00 | 0.00 | 0.00 | 75 | 1011.4 |
| 20260507170056 | 13 | 194 | 1.6 | 8.0 | 0.00 | 0.00 | 0.00 | 75 | 1012.7 |
| 20260507170039 | 13 | 128 | 1.6 | 9.7 | 0.00 | 0.00 | 0.00 | 74 | 1011.4 |
| 20260507164617 | 13 | 142 | 1.6 | 4.8 | 0.00 | 0.00 | 0.00 | 74 | 1012.6 |
| 20260507164539 | 13 | 137 | 0.0 | 8.0 | 0.00 | 0.00 | 0.00 | 74 | 1011.5 |
| 20260507163054 | 14 | 126 | 1.6 | 8.0 | 0.00 | 0.00 | 0.00 | 73 | 1012.7 |
| 20260507163039 | 14 | 130 | 1.6 | 11.3 | 0.00 | 0.00 | 0.00 | 72 | 1011.4 |
| 20260507161556 | 14 | 140 | 1.6 | 8.0 | 0.00 | 0.00 | 0.00 | 70 | 1012.6 |
| 20260507161540 | 14 | 148 | 3.2 | 9.7 | 0.00 | 0.00 | 0.00 | 70 | 1011.4 |
| 20260507160052 | 15 | 140 | 3.2 | 14.5 | 0.00 | 0.00 | 0.00 | 68 | 1012.5 |
| 20260507160048 | 15 | 156 | 3.2 | 14.5 | 0.00 | 0.00 | 0.00 | 67 | 1011.3 |
| 20260507154552 | 15 | 138 | 3.2 | 9.7 | 0.00 | 0.00 | 0.00 | 59 | 1012.6 |
| 20260507154531 | 15 | 161 | 1.6 | 9.7 | 0.00 | 0.00 | 0.00 | 57 | 1011.3 |
| 20260507153051 | 15 | 216 | 1.6 | 14.5 | 0.00 | 0.00 | 0.00 | 57 | 1012.5 |
| 20260507153039 | 15 | 205 | 1.6 | 14.5 | 0.00 | 0.00 | 0.00 | 57 | 1011.4 |
| 20260507151550 | 15 | 181 | 0.0 | 9.7 | 0.00 | 0.00 | 0.00 | 58 | 1012.6 |
| 20260507151539 | 15 | 0 | 1.6 | 9.7 | 0.00 | 0.00 | 0.00 | 56 | 1011.4 |
| 20260507150049 | 15 | 234 | 3.2 | 8.0 | 0.00 | 0.00 | 0.00 | 55 | 1012.7 |
| 20260507150038 | 15 | 186 | 1.6 | 12.9 | 0.00 | 0.00 | 0.00 | 55 | 1011.5 |
| 20260507144547 | 15 | 121 | 3.2 | 12.9 | 0.00 | 0.00 | 0.00 | 56 | 1012.8 |
| 20260507144540 | 15 | 116 | 3.2 | 12.9 | 0.00 | 0.00 | 0.00 | 56 | 1011.5 |
| 20260507143101 | 15 | 240 | 3.2 | 14.5 | 0.00 | 0.00 | 0.00 | 57 | 1012.9 |
| 20260507143037 | 15 | 165 | 4.8 | 14.5 | 0.00 | 0.00 | 0.00 | 56 | 1011.7 |
| 20260507141604 | 15 | 158 | 1.6 | 9.7 | 0.00 | 0.00 | 0.00 | 61 | 1012.9 |
| 20260507141537 | 15 | 159 | 3.2 | 11.3 | 0.00 | 0.00 | 0.00 | 60 | 1011.7 |
| 20260507140045 | 14 | 114 | 3.2 | 14.5 | 0.00 | 0.00 | 0.00 | 70 | 1013.0 |
| 20260507134544 | 15 | 117 | 3.2 | 14.5 | 0.00 | 0.00 | 0.00 | 69 | 1013.1 |
| 20260507134533 | 15 | 43 | 3.2 | 14.5 | 0.00 | 0.00 | 0.00 | 68 | 1011.7 |
| 20260507133044 | 15 | 174 | 1.6 | 6.4 | 0.00 | 0.00 | 0.00 | 62 | 1013.1 |
| 20260507133037 | 15 | 155 | 1.6 | 20.9 | 0.00 | 0.00 | 0.00 | 59 | 1011.8 |
| 20260507131607 | 16 | 0 | 0.0 | 11.3 | 0.00 | 0.00 | 0.00 | 51 | 1011.7 |
| 20260507131552 | 16 | 170 | 0.0 | 8.0 | 0.00 | 0.00 | 0.00 | 52 | 1013.0 |
| 20260507130042 | 15 | 224 | 1.6 | 9.7 | 0.00 | 0.00 | 0.00 | 53 | 1013.1 |
| 20260507130039 | 15 | 300 | 3.2 | 11.3 | 0.00 | 0.00 | 0.00 | 52 | 1011.7 |
| 20260507124540 | 15 | 273 | 3.2 | 12.9 | 0.00 | 0.00 | 0.00 | 53 | 1011.8 |
| 20260507124536 | 15 | 215 | 3.2 | 12.9 | 0.00 | 0.00 | 0.00 | 54 | 1013.3 |
| 20260507123041 | 15 | 0 | 1.6 | 12.9 | 0.00 | 0.00 | 0.00 | 54 | 1011.9 |
| 20260507123033 | 15 | 199 | 0.0 | 12.9 | 0.00 | 0.00 | 0.00 | 55 | 1013.3 |